createdAt,value
2019-03-22T00:00:46.744Z,62191.07
2019-03-22T00:03:12.972Z,62186.62
2019-03-22T00:05:39.237Z,62194.86
2019-03-22T00:08:05.467Z,62176.96
2019-03-22T00:10:31.725Z,62168.62
2019-03-22T00:12:58.204Z,62188.92
2019-03-22T00:15:24.461Z,62179.04
2019-03-22T00:17:50.706Z,62191.07
2019-03-22T00:20:16.938Z,62176.08
2019-03-22T00:22:43.220Z,62185.67
2019-03-22T00:25:09.452Z,62184.58
2019-03-22T00:27:35.719Z,62174.38
2019-03-22T00:32:54.452Z,62162.21
2019-03-22T00:35:21.774Z,62164.45
2019-03-22T00:37:48.170Z,62158.78
2019-03-22T00:40:14.564Z,62161.73
2019-03-22T00:42:40.826Z,62166.19
2019-03-22T00:45:08.381Z,62148.29
2019-03-22T00:47:34.654Z,62157.00
2019-03-22T00:50:01.395Z,62143.14
2019-03-22T00:52:27.703Z,62139.03
2019-03-22T00:54:54.002Z,62129.37
2019-03-22T00:57:28.382Z,62121.59
2019-03-22T00:59:49.610Z,62139.15
2019-03-22T01:05:12.655Z,62127.07
2019-03-22T01:07:39.029Z,62135.11
2019-03-22T01:10:25.102Z,62140.51
2019-03-22T01:12:51.752Z,62130.60
2019-03-22T01:15:18.012Z,62146.73
2019-03-22T01:17:44.263Z,62152.12
2019-03-22T01:23:04.806Z,62147.67
2019-03-22T01:25:31.088Z,62151.32
2019-03-22T01:27:57.600Z,62162.40
2019-03-22T01:30:23.848Z,62155.18
2019-03-22T01:32:50.225Z,62175.66
2019-03-22T01:35:16.487Z,62182.03
2019-03-22T01:37:42.742Z,62197.05
2019-03-22T01:40:30.532Z,62193.80
2019-03-22T01:42:56.799Z,62190.08
2019-03-22T01:45:23.042Z,62183.50
2019-03-22T01:47:49.279Z,62166.74
2019-03-22T01:50:37.087Z,62158.97
2019-03-22T01:53:03.365Z,62169.43
2019-03-22T01:55:29.649Z,62159.04
2019-03-22T01:57:55.897Z,62155.25
2019-03-22T02:00:22.153Z,62158.07
2019-03-22T02:02:48.399Z,62149.30
2019-03-22T02:05:14.631Z,62154.30
2019-03-22T02:07:40.884Z,62131.34
2019-03-22T02:10:48.428Z,62121.85
2019-03-22T02:13:14.692Z,62130.25
2019-03-22T02:15:40.930Z,62132.81
2019-03-22T02:18:07.181Z,62122.68
2019-03-22T02:20:33.404Z,62136.98
2019-03-22T02:22:59.672Z,62130.49
2019-03-22T02:25:25.907Z,62121.19
2019-03-22T02:28:03.457Z,62109.90
2019-03-22T02:30:20.329Z,62112.66
2019-03-22T02:32:46.576Z,62114.16
2019-03-22T02:38:20.176Z,62111.98
2019-03-22T02:40:46.418Z,62129.42
2019-03-22T02:43:12.671Z,62132.67
2019-03-22T02:45:38.920Z,62122.25
2019-03-22T02:48:05.199Z,62129.42
2019-03-22T02:50:31.438Z,62112.41
2019-03-22T02:52:57.696Z,62123.54
2019-03-22T02:55:23.933Z,62119.63
2019-03-22T02:57:50.191Z,62122.25
2019-03-22T03:00:57.729Z,62128.88
2019-03-22T03:03:23.960Z,62131.18
2019-03-22T03:11:02.963Z,62139.57
2019-03-22T03:13:29.209Z,62148.34
2019-03-22T03:15:55.441Z,62139.03
2019-03-22T03:18:21.698Z,62139.70
2019-03-22T03:20:47.950Z,62126.70
2019-03-22T03:23:14.184Z,62124.55
2019-03-22T03:25:40.499Z,62107.54
2019-03-22T03:28:06.736Z,62102.14
2019-03-22T03:30:32.983Z,62113.73
2019-03-22T03:32:59.238Z,62092.61
2019-03-22T03:35:25.470Z,62104.01
2019-03-22T03:37:51.696Z,62085.04
2019-03-22T03:40:17.950Z,62095.35
2019-03-22T03:42:44.217Z,62082.95
2019-03-22T03:45:51.781Z,62086.71
2019-03-22T03:48:18.029Z,62063.23
2019-03-22T03:50:44.302Z,62073.19
2019-03-22T03:53:10.537Z,62061.93
2019-03-22T03:55:36.785Z,62054.17
2019-03-22T03:58:03.738Z,62055.36
2019-03-22T04:00:29.997Z,62049.42
2019-03-22T04:02:56.252Z,62042.94
2019-03-22T04:05:22.577Z,62040.24
2019-03-22T04:07:48.842Z,62024.20
2019-03-22T04:10:15.095Z,62025.00
2019-03-22T04:12:41.324Z,62015.01
2019-03-22T04:15:07.783Z,62009.40
2019-03-22T04:17:34.022Z,62004.89
2019-03-22T04:22:54.498Z,62004.15
2019-03-22T04:25:20.757Z,62015.94
2019-03-22T04:27:47.013Z,62006.09
2019-03-22T04:30:13.273Z,62011.62
2019-03-22T04:33:21.128Z,61993.08
2019-03-22T04:35:47.396Z,61981.14
2019-03-22T04:38:13.661Z,61984.10
2019-03-22T04:40:39.910Z,61982.28
2019-03-22T04:43:06.133Z,61976.33
2019-03-22T04:45:53.933Z,61984.61
2019-03-22T04:48:40.617Z,61967.30
2019-03-22T04:51:48.223Z,61987.84
2019-03-22T05:00:29.173Z,62009.34
2019-03-22T05:03:36.737Z,62013.84
2019-03-22T05:06:44.281Z,62007.45
2019-03-22T05:18:05.241Z,62012.99
2019-03-22T05:20:53.029Z,62029.17
2019-03-22T05:24:00.616Z,62038.61
2019-03-22T05:26:48.400Z,61895.58
2019-03-22T05:29:55.971Z,62060.11
2019-03-22T05:32:22.224Z,62096.44
2019-03-22T05:34:48.459Z,62113.62
2019-03-22T05:37:14.692Z,62151.04
2019-03-22T05:39:40.955Z,62177.55
2019-03-22T05:42:07.194Z,62194.32
2019-03-22T05:44:33.448Z,62216.39
2019-03-22T05:49:52.796Z,62249.41
2019-03-22T05:52:19.027Z,62287.98
2019-03-22T05:54:45.285Z,62323.19
2019-03-22T05:57:13.692Z,62340.46
2019-03-22T05:59:42.763Z,62379.90
2019-03-22T06:02:07.857Z,62429.45
2019-03-22T06:04:34.119Z,62464.16
2019-03-22T06:07:00.354Z,62496.18
2019-03-22T06:09:26.904Z,62515.59
2019-03-22T06:11:53.156Z,62539.61
2019-03-22T06:14:19.408Z,62568.32
2019-03-22T06:16:45.649Z,62604.05
2019-03-22T06:19:11.923Z,62623.27
2019-03-22T06:21:38.139Z,62628.63
2019-03-22T06:24:04.387Z,62652.16
2019-03-22T06:26:30.712Z,62661.67
2019-03-22T06:28:56.988Z,62703.61
2019-03-22T06:31:23.222Z,62716.33
2019-03-22T06:33:49.473Z,62752.19
2019-03-22T06:36:15.699Z,62745.09
2019-03-22T06:38:41.941Z,62768.50
2019-03-22T06:41:08.188Z,62789.73
2019-03-22T06:43:34.421Z,62803.86
2019-03-22T06:46:00.669Z,62822.73
2019-03-22T06:48:26.928Z,62861.07
2019-03-22T06:50:53.181Z,62875.79
2019-03-22T06:53:19.436Z,62858.41
2019-03-22T06:55:45.682Z,62873.07
2019-03-22T06:58:11.953Z,62917.59
2019-03-22T07:00:38.208Z,62947.71
2019-03-22T07:03:04.468Z,62982.20
2019-03-22T07:05:30.713Z,63030.11
2019-03-22T07:07:56.934Z,63049.18
2019-03-22T07:10:23.184Z,63060.22
2019-03-22T07:12:49.412Z,63102.17
2019-03-22T07:15:56.960Z,63130.59
2019-03-22T07:18:23.229Z,63107.89
2019-03-22T07:20:49.477Z,63125.67
2019-03-22T07:23:15.710Z,63126.52
2019-03-22T07:25:41.964Z,63151.93
2019-03-22T07:28:08.219Z,63177.19
2019-03-22T07:30:34.467Z,63198.35
2019-03-22T07:33:00.699Z,63181.91
2019-03-22T07:35:26.943Z,63200.16
2019-03-22T07:37:53.183Z,63202.21
2019-03-22T07:40:19.424Z,63231.19
2019-03-22T07:42:45.666Z,63245.32
2019-03-22T07:45:12.197Z,63272.16
2019-03-22T07:47:38.448Z,63293.00
2019-03-22T07:53:17.846Z,63290.79
2019-03-22T07:55:44.101Z,63326.88
2019-03-22T07:58:10.340Z,63310.62
2019-03-22T08:00:36.579Z,63303.10
2019-03-22T08:03:02.925Z,63312.65
2019-03-22T08:05:29.167Z,63326.32
2019-03-22T08:07:56.198Z,63329.87
2019-03-22T08:10:23.519Z,63358.12
2019-03-22T08:12:49.796Z,63372.32
2019-03-22T08:15:35.790Z,63369.04
2019-03-22T08:18:02.142Z,63371.51
2019-03-22T08:20:28.380Z,63406.23
2019-03-22T08:22:54.629Z,63408.00
2019-03-22T08:25:20.872Z,63427.68
2019-03-22T08:27:47.107Z,63419.71
2019-03-22T08:30:13.592Z,63449.01
2019-03-22T08:32:39.815Z,63436.36
2019-03-22T08:35:06.042Z,63437.12
2019-03-22T08:37:32.295Z,63438.10
2019-03-22T08:39:58.526Z,63458.89
2019-03-22T08:42:24.787Z,63476.43
2019-03-22T08:44:51.036Z,63458.28
2019-03-22T08:47:17.285Z,63432.18
2019-03-22T08:49:43.763Z,63444.67
2019-03-22T08:52:11.684Z,63484.10
2019-03-22T08:54:38.467Z,63505.48
2019-03-22T08:57:06.055Z,63499.04
2019-03-22T08:59:32.310Z,63518.07
2019-03-22T09:01:58.566Z,63530.84
2019-03-22T09:04:24.817Z,63480.61
2019-03-22T09:06:51.058Z,63505.48
2019-03-22T09:09:17.346Z,63465.40
2019-03-22T09:11:43.543Z,63531.50
2019-03-22T09:14:09.796Z,63462.87
2019-03-22T09:16:36.043Z,63512.60
2019-03-22T09:19:43.645Z,63524.91
2019-03-22T09:22:09.867Z,63511.20
2019-03-22T09:24:39.457Z,63512.63
2019-03-22T09:27:04.271Z,63555.37
2019-03-22T09:29:30.523Z,63552.61
2019-03-22T09:31:56.745Z,63527.76
2019-03-22T09:34:33.132Z,63544.40
2019-03-22T09:36:51.127Z,63543.30
2019-03-22T09:39:17.384Z,63561.95
2019-03-22T09:41:43.622Z,63561.98
2019-03-22T09:44:09.878Z,63585.00
2019-03-22T09:46:36.144Z,63573.29
2019-03-22T09:49:02.477Z,63579.13
2019-03-22T09:51:28.783Z,63576.03
2019-03-22T09:53:55.051Z,63590.20
2019-03-22T09:56:21.302Z,63603.66
2019-03-22T09:58:47.517Z,63595.03
2019-03-22T10:01:23.082Z,63591.19
2019-03-22T10:03:42.678Z,63636.40
2019-03-22T10:06:10.051Z,63650.31
2019-03-22T10:08:36.289Z,63655.25
2019-03-22T10:11:02.542Z,63645.38
2019-03-22T10:13:28.773Z,63606.42
2019-03-22T10:15:55.070Z,63599.29
2019-03-22T10:18:21.281Z,63604.37
2019-03-22T10:20:47.546Z,63614.08
2019-03-22T10:23:13.816Z,63597.56
2019-03-22T10:25:40.087Z,63595.79
2019-03-22T10:28:06.290Z,63583.50
2019-03-22T10:30:32.553Z,63585.04
2019-03-22T10:32:58.967Z,63467.90
2019-03-22T10:35:26.528Z,63577.13
2019-03-22T10:38:00.349Z,63581.94
2019-03-22T10:40:21.550Z,63565.79
2019-03-22T10:42:47.756Z,63590.98
2019-03-22T10:45:14.116Z,63575.11
2019-03-22T10:47:40.349Z,63522.03
2019-03-22T10:50:47.917Z,63539.71
2019-03-22T10:53:14.128Z,63561.33
2019-03-22T10:55:40.341Z,63583.89
2019-03-22T10:58:19.802Z,63560.85
2019-03-22T11:00:34.707Z,63572.74
2019-03-22T11:03:00.949Z,63569.22
2019-03-22T11:05:27.175Z,63600.18
2019-03-22T11:07:53.433Z,63580.21
2019-03-22T11:10:19.677Z,63570.32
2019-03-22T11:12:45.928Z,63576.35
2019-03-22T11:15:53.465Z,63583.50
2019-03-22T11:18:19.704Z,63587.48
2019-03-22T11:20:45.955Z,63583.73
2019-03-22T11:23:12.196Z,63568.53
2019-03-22T11:25:38.420Z,63549.69
2019-03-22T11:28:04.659Z,63539.83
2019-03-22T11:30:30.885Z,63552.98
2019-03-22T11:32:57.124Z,63522.95
2019-03-22T11:35:23.347Z,63546.04
2019-03-22T11:37:49.583Z,63553.88
2019-03-22T11:40:16.670Z,63551.77
2019-03-22T11:42:42.902Z,63518.56
2019-03-22T11:48:22.748Z,63541.60
2019-03-22T11:50:48.964Z,63523.02
2019-03-22T11:53:15.211Z,63507.66
2019-03-22T11:55:41.449Z,63503.18
2019-03-22T11:58:07.692Z,63496.95
2019-03-22T12:00:33.913Z,63496.17
2019-03-22T12:03:00.151Z,63472.52
2019-03-22T12:05:26.501Z,63484.63
2019-03-22T12:07:52.739Z,63476.45
2019-03-22T12:11:00.272Z,63464.36
2019-03-22T12:13:26.509Z,63432.58
2019-03-22T12:15:52.745Z,63419.97
2019-03-22T12:18:18.993Z,63414.16
2019-03-22T12:20:45.276Z,63385.10
2019-03-22T12:23:11.504Z,63291.81
2019-03-22T12:25:37.744Z,63331.64
2019-03-22T12:28:03.977Z,63323.54
2019-03-22T12:30:30.218Z,63338.66
2019-03-22T12:32:56.451Z,63355.83
2019-03-22T12:35:22.693Z,63362.95
2019-03-22T12:37:48.918Z,63372.85
2019-03-22T12:40:56.461Z,63367.97
2019-03-22T12:43:22.687Z,63372.59
2019-03-22T12:45:48.933Z,63380.48
2019-03-22T12:48:15.158Z,63373.98
2019-03-22T12:50:41.395Z,63354.29
2019-03-22T12:53:07.629Z,63330.88
2019-03-22T12:55:33.876Z,63339.30
2019-03-22T12:58:00.113Z,63320.31
2019-03-22T13:00:26.458Z,63274.30
2019-03-22T13:06:00.365Z,63221.82
2019-03-22T13:08:26.621Z,63199.69
2019-03-22T13:10:52.865Z,63173.04
2019-03-22T13:13:19.121Z,63143.70
2019-03-22T13:15:45.347Z,63117.22
2019-03-22T13:18:11.594Z,63107.26
2019-03-22T13:20:37.836Z,63101.58
2019-03-22T13:23:04.132Z,63099.37
2019-03-22T13:25:30.383Z,63091.29
2019-03-22T13:27:56.611Z,63092.87
2019-03-22T13:30:42.611Z,63081.04
2019-03-22T13:33:08.858Z,63081.79
2019-03-22T13:35:35.105Z,63075.04
2019-03-22T13:38:01.438Z,63064.87
2019-03-22T13:40:27.672Z,63060.73
2019-03-22T13:42:53.924Z,63063.96
2019-03-22T13:45:20.149Z,63048.43
2019-03-22T13:47:46.394Z,63045.24
2019-03-22T13:50:12.826Z,63041.07
2019-03-22T13:52:39.073Z,63034.48
2019-03-22T13:58:18.632Z,63025.74
2019-03-22T14:00:44.887Z,63018.64
2019-03-22T14:03:11.155Z,63008.32
2019-03-22T14:05:37.408Z,62994.41
2019-03-22T14:08:03.666Z,62986.77
2019-03-22T14:11:11.513Z,62992.45
2019-03-22T14:13:39.738Z,62980.98
2019-03-22T14:18:33.990Z,62964.68
2019-03-22T14:21:00.266Z,62949.88
2019-03-22T14:23:26.536Z,62943.42
2019-03-22T14:25:52.807Z,62939.55
2019-03-22T14:28:19.074Z,62924.68
2019-03-22T14:30:45.321Z,62930.30
2019-03-22T14:33:13.665Z,62912.40
2019-03-22T14:35:39.740Z,62925.93
2019-03-22T14:38:05.992Z,62911.33
2019-03-22T14:40:32.229Z,62906.61
2019-03-22T14:42:58.490Z,62918.30
2019-03-22T14:45:24.743Z,62904.09
2019-03-22T14:47:51.017Z,62900.28
2019-03-22T14:50:17.449Z,62896.26
2019-03-22T14:52:43.683Z,62894.64
2019-03-22T14:55:51.224Z,62892.12
2019-03-22T14:58:17.517Z,62888.50
2019-03-22T15:00:43.768Z,62882.79
2019-03-22T15:03:29.809Z,62876.26
2019-03-22T15:05:56.096Z,62864.94
2019-03-22T15:08:22.473Z,62855.02
2019-03-22T15:10:49.412Z,62842.62
2019-03-22T15:13:15.779Z,62835.87
2019-03-22T15:18:49.826Z,62819.54
2019-03-22T15:21:35.855Z,62817.50
2019-03-22T15:24:21.973Z,62792.72
2019-03-22T15:27:07.991Z,62783.75
2019-03-22T15:32:27.941Z,62756.80
2019-03-22T15:35:14.047Z,62746.26
2019-03-22T15:38:00.404Z,62736.25
2019-03-22T15:40:26.656Z,62724.42
2019-03-22T15:42:52.903Z,62714.76
2019-03-22T15:45:19.165Z,62711.70
2019-03-22T15:47:45.394Z,62702.66
2019-03-22T15:50:52.945Z,62693.40
2019-03-22T15:53:19.206Z,62695.31
2019-03-22T15:55:45.436Z,62693.42
2019-03-22T15:58:11.687Z,62678.52
2019-03-22T16:03:28.294Z,62664.38
2019-03-22T16:05:54.530Z,62671.66
2019-03-22T16:08:20.778Z,62665.69
2019-03-22T16:10:47.013Z,62645.02
2019-03-22T16:13:13.271Z,62637.61
2019-03-22T16:15:39.497Z,62631.43
2019-03-22T16:18:05.764Z,62625.99
2019-03-22T16:20:32.001Z,62615.61
2019-03-22T16:22:58.251Z,62618.92
2019-03-22T16:28:31.894Z,62619.54
2019-03-22T16:30:58.128Z,62615.41
2019-03-22T16:33:24.392Z,62606.76
2019-03-22T16:35:57.823Z,62602.63
2019-03-22T16:38:24.082Z,62604.12
2019-03-22T16:40:50.324Z,62601.96
2019-03-22T16:43:16.579Z,62597.54
2019-03-22T16:45:42.929Z,62595.35
2019-03-22T16:48:50.476Z,62592.64
2019-03-22T16:51:16.738Z,62568.40
2019-03-22T16:53:43.001Z,62583.74
2019-03-22T16:56:09.260Z,62584.03
2019-03-22T16:58:35.537Z,62578.31
2019-03-22T17:01:01.796Z,62580.35
2019-03-22T17:03:28.032Z,62579.48
2019-03-22T17:05:54.296Z,62582.39
2019-03-22T17:08:20.552Z,62587.42
2019-03-22T17:10:46.806Z,62578.19
2019-03-22T17:13:13.067Z,62577.42
2019-03-22T17:15:39.308Z,62589.04
2019-03-22T17:18:05.571Z,62580.22
2019-03-22T17:20:31.828Z,62577.96
2019-03-22T17:22:58.061Z,62574.51
2019-03-22T17:25:24.325Z,62573.09
2019-03-22T17:27:50.567Z,62574.23
2019-03-22T17:30:38.366Z,62576.62
2019-03-22T17:33:04.615Z,62572.00
2019-03-22T17:35:30.879Z,62573.91
2019-03-22T17:37:57.115Z,62566.55
2019-03-22T17:40:23.368Z,62563.97
2019-03-22T17:42:49.607Z,62567.10
2019-03-22T17:45:37.408Z,62568.74
2019-03-22T17:48:03.650Z,62565.81
2019-03-22T17:50:29.894Z,62579.27
2019-03-22T17:52:56.128Z,62567.32
2019-03-22T17:55:22.433Z,62563.64
2019-03-22T17:57:48.671Z,62570.85
2019-03-22T18:03:13.654Z,62566.97
2019-03-22T18:05:39.913Z,62563.64
2019-03-22T18:08:06.146Z,62564.59
2019-03-22T18:10:32.387Z,62563.30
2019-03-22T18:12:58.630Z,62566.55
2019-03-22T18:15:24.890Z,62579.27
2019-03-22T18:17:51.137Z,62456.97
2019-03-22T18:20:17.394Z,62566.16
2019-03-22T18:22:43.629Z,62430.66
2019-03-22T18:25:51.217Z,62573.42
2019-03-22T18:28:17.460Z,62591.23
2019-03-22T18:30:43.737Z,62597.74
2019-03-22T18:33:09.972Z,62606.45
2019-03-22T18:35:36.242Z,62600.99
2019-03-22T18:38:02.482Z,62603.30
2019-03-22T18:40:28.756Z,62612.28
2019-03-22T18:45:45.043Z,62618.92
2019-03-22T18:48:11.268Z,62619.40
2019-03-22T18:50:37.517Z,62629.67
2019-03-22T18:53:03.759Z,62629.79
2019-03-22T18:55:30.012Z,62628.85
2019-03-22T18:57:56.257Z,62628.50
2019-03-22T19:00:22.696Z,62628.63
2019-03-22T19:02:48.945Z,62631.43
2019-03-22T19:05:15.287Z,62631.96
2019-03-22T19:07:41.653Z,62628.08
2019-03-22T19:10:27.647Z,62627.95
2019-03-22T19:12:53.943Z,62625.24
2019-03-22T19:15:21.313Z,62625.79
2019-03-22T19:17:47.557Z,62622.31
2019-03-22T19:20:35.359Z,62626.88
2019-03-22T19:23:01.611Z,62635.02
2019-03-22T19:25:27.863Z,62649.91
2019-03-22T19:27:54.107Z,62637.73
2019-03-22T19:30:20.347Z,62652.10
2019-03-22T19:32:46.642Z,62642.43
2019-03-22T19:35:34.423Z,62649.37
2019-03-22T19:38:00.678Z,62655.27
2019-03-22T19:40:26.947Z,62667.39
2019-03-22T19:42:53.203Z,62665.48
2019-03-22T19:45:19.431Z,62668.73
2019-03-22T19:47:45.683Z,62665.48
2019-03-22T19:50:53.222Z,62672.74
2019-03-22T19:53:19.474Z,62683.49
2019-03-22T19:55:46.446Z,62573.62
2019-03-22T19:58:12.713Z,62688.30
2019-03-22T20:00:38.973Z,62694.91
2019-03-22T20:03:05.222Z,62703.61
2019-03-22T20:05:31.884Z,62702.66
2019-03-22T20:07:58.463Z,62703.54
2019-03-22T20:10:24.915Z,62704.15
2019-03-22T20:12:51.180Z,62703.19
2019-03-22T20:15:17.417Z,62705.92
2019-03-22T20:17:43.666Z,62710.80
2019-03-22T20:20:09.943Z,62708.09
2019-03-22T20:22:36.158Z,62706.80
2019-03-22T20:28:00.934Z,62711.35
2019-03-22T20:30:27.199Z,62721.23
2019-03-22T20:32:53.428Z,62741.30
2019-03-22T20:35:19.680Z,62736.05
2019-03-22T20:40:53.296Z,62746.39
2019-03-22T20:43:21.203Z,62740.54
2019-03-22T20:45:47.702Z,62745.96
2019-03-22T20:48:13.951Z,62744.20
2019-03-22T20:50:40.209Z,62617.57
2019-03-22T20:53:06.478Z,62741.83
2019-03-22T20:55:32.743Z,62747.13
2019-03-22T20:57:58.994Z,62691.04
2019-03-22T21:00:27.345Z,62741.28
2019-03-22T21:02:53.391Z,62741.68
2019-03-22T21:05:26.797Z,62738.89
2019-03-22T21:07:48.084Z,62743.20
2019-03-22T21:10:15.406Z,62733.59
2019-03-22T21:12:41.639Z,62738.57
2019-03-22T21:15:29.469Z,62740.73
2019-03-22T21:17:55.706Z,62737.27
2019-03-22T21:20:21.956Z,62741.61
2019-03-22T21:22:49.449Z,62743.80
2019-03-22T21:25:15.720Z,62739.31
2019-03-22T21:27:41.971Z,62731.62
2019-03-22T21:30:27.969Z,62736.18
2019-03-22T21:32:54.228Z,62748.63
2019-03-22T21:35:22.928Z,62751.14
2019-03-22T21:37:48.613Z,62754.75
2019-03-22T21:40:15.139Z,62746.51
2019-03-22T21:42:41.401Z,62748.55
2019-03-22T21:48:04.241Z,62742.50
2019-03-22T21:50:30.577Z,62741.16
2019-03-22T21:52:56.819Z,62736.18
2019-03-22T21:55:23.134Z,62741.16
2019-03-22T21:57:49.389Z,62744.56
2019-03-22T22:00:15.964Z,62733.66
2019-03-22T22:02:42.215Z,62726.17
2019-03-22T22:05:08.653Z,62735.85
2019-03-22T22:07:34.925Z,62733.68
2019-03-22T22:10:01.262Z,62719.32
2019-03-22T22:12:29.788Z,62719.32
2019-03-22T22:17:32.109Z,62724.62
2019-03-22T22:19:58.362Z,62718.42
2019-03-22T22:22:24.615Z,62724.14
2019-03-22T22:24:50.863Z,62716.88
2019-03-22T22:27:17.125Z,62712.25
2019-03-22T22:29:43.407Z,62706.25
2019-03-22T22:32:09.655Z,62709.93
2019-03-22T22:34:36.066Z,62707.89
2019-03-22T22:37:02.325Z,62702.11
2019-03-22T22:39:28.570Z,62709.73
2019-03-22T22:41:54.849Z,62723.89
2019-03-22T22:44:21.097Z,62719.24
2019-03-22T22:46:47.337Z,62719.59
2019-03-22T22:49:13.587Z,62719.64
2019-03-22T22:51:39.827Z,62717.68
2019-03-22T22:54:06.085Z,62718.55
2019-03-22T22:56:32.378Z,62729.37
2019-03-22T22:58:58.665Z,62728.50
2019-03-22T23:01:24.898Z,62725.29
2019-03-22T23:03:51.134Z,62603.70
2019-03-22T23:06:17.390Z,62730.72
2019-03-22T23:08:43.638Z,62738.64
2019-03-22T23:11:09.875Z,62744.56
2019-03-22T23:13:36.125Z,62741.16
2019-03-22T23:16:02.407Z,62738.14
2019-03-22T23:18:28.664Z,62754.77
2019-03-22T23:20:54.911Z,62747.88
2019-03-22T23:23:21.164Z,62747.06
2019-03-22T23:25:47.396Z,62754.88
2019-03-22T23:28:13.708Z,62752.91
2019-03-22T23:30:39.953Z,62748.36
2019-03-22T23:33:06.256Z,62749.45
2019-03-22T23:35:32.508Z,62757.05
2019-03-22T23:37:58.752Z,62763.37
2019-03-22T23:40:25.016Z,62763.45
2019-03-22T23:42:51.253Z,62762.70
2019-03-22T23:45:17.567Z,62761.41
2019-03-22T23:47:43.807Z,62757.20
2019-03-22T23:50:31.613Z,62754.88
2019-03-22T23:52:57.885Z,62749.23
2019-03-22T23:55:24.183Z,62752.49
2019-03-22T23:57:50.439Z,62749.98
